createdAt,value
2018-12-21T00:01:36.584Z,3.60
2018-12-21T00:04:05.357Z,3.90
2018-12-21T00:06:34.028Z,3.40
2018-12-21T00:09:03.693Z,3.43
2018-12-21T00:11:32.354Z,3.83
2018-12-21T00:14:00.992Z,4.20
2018-12-21T00:16:30.098Z,3.33
2018-12-21T00:18:58.783Z,3.97
2018-12-21T00:21:27.515Z,3.70
2018-12-21T00:23:56.211Z,3.27
2018-12-21T00:26:25.780Z,4.20
2018-12-21T00:28:54.491Z,4.37
2018-12-21T00:31:28.867Z,3.53
2018-12-21T00:34:02.796Z,4.20
2018-12-21T00:36:36.944Z,3.60
2018-12-21T00:39:12.507Z,4.23
2018-12-21T00:41:40.363Z,4.33
2018-12-21T00:44:28.419Z,4.67
2018-12-21T00:47:01.486Z,4.20
2018-12-21T00:49:30.109Z,4.37
2018-12-21T00:51:58.811Z,4.63
2018-12-21T00:54:27.497Z,5.07
2018-12-21T00:56:56.447Z,5.00
2018-12-21T00:59:25.467Z,5.60
2018-12-21T01:01:54.265Z,5.37
2018-12-21T01:04:23.023Z,5.70
2018-12-21T01:06:51.742Z,4.93
2018-12-21T01:09:20.334Z,5.43
2018-12-21T01:11:48.943Z,5.73
2018-12-21T01:14:17.620Z,4.97
2018-12-21T01:16:46.173Z,5.83
2018-12-21T01:19:15.015Z,6.67
2018-12-21T01:21:43.632Z,7.17
2018-12-21T01:24:12.284Z,6.13
2018-12-21T01:26:40.967Z,6.17
2018-12-21T01:29:09.833Z,5.80
2018-12-21T01:31:38.521Z,5.00
2018-12-21T01:34:07.232Z,5.30
2018-12-21T01:36:35.932Z,6.00
2018-12-21T01:39:06.756Z,5.10
2018-12-21T01:41:35.330Z,4.23
2018-12-21T01:44:04.011Z,4.53
2018-12-21T01:46:32.883Z,4.70
2018-12-21T01:49:01.781Z,3.90
2018-12-21T01:51:31.049Z,4.17
2018-12-21T01:53:59.781Z,4.80
2018-12-21T01:56:29.004Z,5.37
2018-12-21T01:58:57.652Z,5.50
2018-12-21T02:01:26.244Z,5.20
2018-12-21T02:03:54.873Z,4.97
2018-12-21T02:06:23.904Z,4.03
2018-12-21T02:08:52.494Z,5.07
2018-12-21T02:11:21.232Z,4.60
2018-12-21T02:13:49.791Z,4.53
2018-12-21T02:16:18.709Z,4.60
2018-12-21T02:18:47.255Z,4.50
2018-12-21T02:21:16.161Z,4.10
2018-12-21T02:23:44.704Z,4.10
2018-12-21T02:26:13.659Z,4.53
2018-12-21T02:28:42.576Z,4.20
2018-12-21T02:31:11.595Z,4.43
2018-12-21T02:33:40.439Z,5.00
2018-12-21T02:36:09.147Z,4.20
2018-12-21T02:38:38.038Z,4.50
2018-12-21T02:41:07.026Z,3.90
2018-12-21T02:43:35.675Z,4.53
2018-12-21T02:46:04.795Z,4.13
2018-12-21T02:48:33.889Z,4.17
2018-12-21T02:51:03.250Z,3.77
2018-12-21T02:53:32.166Z,4.23
2018-12-21T02:56:01.016Z,4.77
2018-12-21T02:58:29.637Z,5.23
2018-12-21T03:00:58.193Z,4.93
2018-12-21T03:03:26.780Z,4.67
2018-12-21T03:05:55.383Z,5.50
2018-12-21T03:08:23.983Z,5.97
2018-12-21T03:10:52.551Z,6.80
2018-12-21T03:13:21.129Z,6.63
2018-12-21T03:15:49.695Z,6.63
2018-12-21T03:18:18.424Z,7.07
2018-12-21T03:20:47.694Z,7.43
2018-12-21T03:23:16.576Z,7.47
2018-12-21T03:25:46.066Z,8.70
2018-12-21T03:28:14.617Z,9.23
2018-12-21T03:30:43.323Z,8.60
2018-12-21T03:33:11.949Z,9.27
2018-12-21T03:35:40.648Z,9.67
2018-12-21T03:38:10.214Z,9.50
2018-12-21T03:40:38.767Z,9.57
2018-12-21T03:43:07.394Z,8.97
2018-12-21T03:45:36.036Z,9.70
2018-12-21T03:48:04.689Z,9.17
2018-12-21T03:50:39.401Z,8.30
2018-12-21T03:53:07.995Z,8.03
2018-12-21T03:55:36.920Z,7.20
2018-12-21T03:58:05.478Z,6.70
2018-12-21T04:00:34.102Z,6.50
2018-12-21T04:03:02.688Z,6.37
2018-12-21T04:05:31.759Z,6.33
2018-12-21T04:08:01.210Z,5.77
2018-12-21T04:10:29.783Z,6.10
2018-12-21T04:12:58.359Z,5.83
2018-12-21T04:15:27.597Z,5.80
2018-12-21T04:17:56.425Z,5.00
2018-12-21T04:20:24.968Z,5.30
2018-12-21T04:22:56.280Z,4.67
2018-12-21T04:25:25.244Z,4.60
2018-12-21T04:27:54.416Z,3.97
2018-12-21T04:30:23.439Z,3.97
2018-12-21T04:32:52.093Z,3.93
2018-12-21T04:35:20.998Z,3.70
2018-12-21T04:37:49.511Z,3.97
2018-12-21T04:40:18.882Z,3.60
2018-12-21T04:42:47.923Z,3.30
2018-12-21T04:45:16.491Z,3.40
2018-12-21T04:47:45.542Z,3.10
2018-12-21T04:50:15.015Z,3.23
2018-12-21T04:52:44.007Z,2.80
2018-12-21T04:55:13.428Z,2.60
2018-12-21T04:57:42.048Z,2.77
2018-12-21T05:00:10.817Z,2.60
2018-12-21T05:02:40.352Z,2.90
2018-12-21T05:05:09.200Z,2.77
2018-12-21T05:07:38.538Z,2.80
2018-12-21T05:10:07.941Z,3.17
2018-12-21T05:12:36.639Z,2.73
2018-12-21T05:15:05.651Z,2.90
2018-12-21T05:17:34.195Z,3.20
2018-12-21T05:20:04.151Z,3.47
2018-12-21T05:22:33.391Z,3.70
2018-12-21T05:25:02.686Z,3.47
2018-12-21T05:27:31.347Z,4.40
2018-12-21T05:29:59.993Z,3.90
2018-12-21T05:32:28.601Z,4.50
2018-12-21T05:34:57.308Z,4.97
2018-12-21T05:37:25.851Z,5.37
2018-12-21T05:39:54.841Z,4.90
2018-12-21T05:42:23.413Z,5.90
2018-12-21T05:44:51.989Z,5.57
2018-12-21T05:47:20.575Z,5.10
2018-12-21T05:49:49.462Z,4.70
2018-12-21T05:52:18.070Z,4.30
2018-12-21T05:54:46.603Z,4.20
2018-12-21T05:57:15.184Z,3.40
2018-12-21T05:59:43.924Z,2.60
2018-12-21T06:02:12.999Z,2.70
2018-12-21T06:04:41.688Z,2.70
2018-12-21T06:07:10.698Z,2.97
2018-12-21T06:09:39.413Z,2.73
2018-12-21T06:12:08.083Z,2.60
2018-12-21T06:14:36.732Z,2.53
2018-12-21T06:17:05.421Z,2.90
2018-12-21T06:19:33.987Z,2.90
2018-12-21T06:22:03.026Z,3.60
2018-12-21T06:24:31.649Z,3.30
2018-12-21T06:27:00.374Z,3.40
2018-12-21T06:29:29.846Z,2.60
2018-12-21T06:31:58.591Z,2.90
2018-12-21T06:34:27.436Z,2.73
2018-12-21T06:36:56.450Z,3.20
2018-12-21T06:39:25.387Z,3.67
2018-12-21T06:41:54.248Z,3.27
2018-12-21T06:44:22.804Z,3.50
2018-12-21T06:46:52.433Z,3.50
2018-12-21T06:49:21.010Z,3.20
2018-12-21T06:51:50.151Z,3.70
2018-12-21T06:54:19.282Z,3.67
2018-12-21T06:56:47.770Z,3.20
2018-12-21T06:59:16.410Z,2.80
2018-12-21T07:01:45.323Z,3.03
2018-12-21T07:04:14.050Z,2.50
2018-12-21T07:06:42.573Z,2.23
2018-12-21T07:09:12.632Z,2.60
2018-12-21T07:11:41.996Z,2.70
2018-12-21T07:14:10.686Z,2.83
2018-12-21T07:16:39.582Z,2.90
2018-12-21T07:19:09.241Z,2.97
2018-12-21T07:21:37.976Z,3.30
2018-12-21T07:24:06.779Z,3.07
2018-12-21T07:26:35.418Z,3.50
2018-12-21T07:29:04.166Z,3.53
2018-12-21T07:31:32.777Z,3.50
2018-12-21T07:34:01.370Z,7.20
2018-12-21T07:36:30.273Z,3.77
2018-12-21T07:38:58.896Z,4.03
2018-12-21T07:41:28.135Z,3.90
2018-12-21T07:43:56.885Z,3.27
2018-12-21T07:46:25.732Z,3.10
2018-12-21T07:49:01.553Z,2.00
2018-12-21T07:51:30.497Z,1.70
2018-12-21T07:53:59.363Z,1.40
2018-12-21T07:56:34.905Z,1.40
2018-12-21T07:59:03.905Z,1.20
2018-12-21T08:01:33.335Z,1.00
2018-12-21T08:04:02.532Z,1.00
2018-12-21T08:06:31.384Z,1.20
2018-12-21T08:08:59.977Z,1.10
2018-12-21T08:11:28.592Z,1.20
2018-12-21T08:13:58.320Z,0.90
2018-12-21T08:16:27.394Z,0.90
2018-12-21T08:18:55.958Z,1.93
2018-12-21T08:21:24.811Z,1.07
2018-12-21T08:23:54.109Z,1.10
2018-12-21T08:26:22.664Z,1.20
2018-12-21T08:28:52.389Z,1.37
2018-12-21T08:31:21.308Z,1.00
2018-12-21T08:33:50.277Z,0.93
2018-12-21T08:36:19.545Z,0.90
2018-12-21T08:38:50.309Z,0.97
2018-12-21T08:41:19.319Z,0.80
2018-12-21T08:43:48.643Z,0.87
2018-12-21T08:46:17.380Z,0.70
2018-12-21T08:48:46.162Z,0.70
2018-12-21T08:51:14.910Z,0.70
2018-12-21T08:53:52.521Z,0.70
2018-12-21T08:56:20.012Z,0.70
2018-12-21T08:58:49.716Z,0.80
2018-12-21T09:01:20.253Z,0.93
2018-12-21T09:03:49.258Z,0.83
2018-12-21T09:06:18.845Z,0.70
2018-12-21T09:08:47.752Z,0.70
2018-12-21T09:11:17.320Z,1.00
2018-12-21T09:13:47.405Z,0.80
2018-12-21T09:16:17.244Z,0.93
2018-12-21T09:18:47.025Z,3.17
2018-12-21T09:21:16.878Z,1.67
2018-12-21T09:23:47.153Z,0.70
2018-12-21T09:26:16.362Z,0.90
2018-12-21T09:28:45.390Z,1.03
2018-12-21T09:31:17.669Z,1.13
2018-12-21T09:33:50.295Z,1.03
2018-12-21T09:36:20.097Z,1.03
2018-12-21T09:38:48.978Z,1.03
2018-12-21T09:41:18.713Z,1.10
2018-12-21T09:43:47.398Z,0.90
2018-12-21T09:46:16.033Z,1.00
2018-12-21T09:48:54.505Z,0.80
2018-12-21T09:51:23.489Z,4.97
2018-12-21T09:53:52.137Z,1.37
2018-12-21T09:56:20.773Z,1.30
2018-12-21T09:58:50.315Z,1.23
2018-12-21T10:01:18.840Z,1.47
2018-12-21T10:03:47.627Z,2.60
2018-12-21T10:06:17.009Z,2.73
2018-12-21T10:08:45.966Z,1.90
2018-12-21T10:11:15.623Z,1.87
2018-12-21T10:13:44.242Z,1.70
2018-12-21T10:16:13.592Z,2.00
2018-12-21T10:18:42.320Z,1.70
2018-12-21T10:21:11.701Z,1.97
2018-12-21T10:23:40.544Z,1.77
2018-12-21T10:26:09.731Z,1.63
2018-12-21T10:28:38.536Z,1.50
2018-12-21T10:31:07.354Z,1.43
2018-12-21T10:33:37.320Z,1.77
2018-12-21T10:36:06.135Z,2.17
2018-12-21T10:38:36.124Z,2.00
2018-12-21T10:41:04.752Z,2.50
2018-12-21T10:43:33.731Z,2.07
2018-12-21T10:46:04.226Z,2.33
2018-12-21T10:48:32.962Z,2.83
2018-12-21T10:51:01.926Z,2.43
2018-12-21T10:53:30.745Z,2.43
2018-12-21T10:55:59.873Z,2.37
2018-12-21T10:58:28.522Z,2.53
2018-12-21T11:00:57.177Z,2.70
2018-12-21T11:03:26.762Z,2.60
2018-12-21T11:05:56.432Z,3.23
2018-12-21T11:08:25.173Z,3.40
2018-12-21T11:10:53.991Z,3.00
2018-12-21T11:13:22.778Z,2.60
2018-12-21T11:15:52.400Z,3.00
2018-12-21T11:18:21.854Z,4.13
2018-12-21T11:20:51.005Z,3.33
2018-12-21T11:23:20.010Z,3.37
2018-12-21T11:25:48.862Z,4.60
2018-12-21T11:28:25.163Z,4.27
2018-12-21T11:30:51.224Z,3.93
2018-12-21T11:33:20.656Z,5.13
2018-12-21T11:35:49.410Z,4.33
2018-12-21T11:38:18.471Z,3.90
2018-12-21T11:40:47.205Z,5.73
2018-12-21T11:43:16.896Z,4.97
2018-12-21T11:45:45.744Z,5.67
2018-12-21T11:48:15.263Z,6.43
2018-12-21T11:50:45.245Z,5.87
2018-12-21T11:53:14.818Z,5.47
2018-12-21T11:55:43.915Z,5.63
2018-12-21T11:58:12.608Z,6.47
2018-12-21T12:00:41.386Z,6.87
2018-12-21T12:03:10.463Z,4.93
2018-12-21T12:05:39.265Z,6.07
2018-12-21T12:08:08.948Z,6.33
2018-12-21T12:10:38.042Z,5.90
2018-12-21T12:13:06.755Z,5.80
2018-12-21T12:15:35.696Z,6.50
2018-12-21T12:18:04.594Z,6.23
2018-12-21T12:20:33.356Z,7.07
2018-12-21T12:23:02.678Z,6.53
2018-12-21T12:25:32.388Z,6.83
2018-12-21T12:28:01.145Z,6.07
2018-12-21T12:30:29.838Z,7.10
2018-12-21T12:33:00.042Z,6.93
2018-12-21T12:35:28.831Z,6.80
2018-12-21T12:37:57.723Z,5.60
2018-12-21T12:40:26.880Z,7.07
2018-12-21T12:42:55.531Z,6.90
2018-12-21T12:45:24.462Z,7.10
2018-12-21T12:47:53.071Z,6.90
2018-12-21T12:50:22.170Z,7.10
2018-12-21T12:52:51.396Z,7.00
2018-12-21T12:55:21.125Z,7.30
2018-12-21T12:57:55.199Z,7.83
2018-12-21T13:00:23.856Z,7.87
2018-12-21T13:02:52.482Z,6.27
2018-12-21T13:05:21.451Z,8.00
2018-12-21T13:07:50.064Z,8.00
2018-12-21T13:10:19.257Z,7.07
2018-12-21T13:12:47.908Z,8.50
2018-12-21T13:15:16.573Z,7.53
2018-12-21T13:17:45.446Z,7.13
2018-12-21T13:20:14.189Z,6.97
2018-12-21T13:22:42.919Z,7.77
2018-12-21T13:25:11.967Z,8.00
2018-12-21T13:27:40.660Z,6.63
2018-12-21T13:30:12.056Z,6.70
2018-12-21T13:32:40.940Z,7.63
2018-12-21T13:35:09.722Z,6.70
2018-12-21T13:37:38.631Z,9.10
2018-12-21T13:40:10.720Z,8.60
2018-12-21T13:42:39.420Z,8.10
2018-12-21T13:45:10.430Z,8.63
2018-12-21T13:47:39.043Z,8.57
2018-12-21T13:50:12.021Z,7.20
2018-12-21T13:52:43.142Z,9.43
2018-12-21T13:55:20.000Z,8.17
2018-12-21T13:57:43.452Z,8.80
2018-12-21T14:00:12.351Z,8.17
2018-12-21T14:02:41.869Z,9.37
2018-12-21T14:05:10.646Z,9.83
2018-12-21T14:07:39.226Z,8.47
2018-12-21T14:10:11.294Z,8.53
2018-12-21T14:12:39.929Z,9.77
2018-12-21T14:15:10.288Z,8.30
2018-12-21T14:17:38.981Z,9.23
2018-12-21T14:20:10.941Z,9.00
2018-12-21T14:22:39.993Z,8.67
2018-12-21T14:25:09.714Z,7.70
2018-12-21T14:27:38.970Z,7.83
2018-12-21T14:30:10.397Z,7.17
2018-12-21T14:32:39.108Z,8.27
2018-12-21T14:35:08.593Z,8.27
2018-12-21T14:37:37.500Z,7.23
2018-12-21T14:40:06.678Z,10.00
2018-12-21T14:42:36.618Z,9.07
2018-12-21T14:45:06.535Z,7.53
2018-12-21T14:47:36.253Z,9.93
2018-12-21T14:50:07.811Z,9.07
2018-12-21T14:52:36.790Z,8.73
2018-12-21T14:55:06.623Z,8.90
2018-12-21T14:57:35.668Z,9.27
2018-12-21T15:00:07.194Z,9.23
2018-12-21T15:02:35.890Z,9.20
2018-12-21T15:05:04.809Z,10.50
2018-12-21T15:07:33.795Z,10.10
2018-12-21T15:10:03.101Z,9.23
2018-12-21T15:12:32.200Z,7.80
2018-12-21T15:15:01.986Z,9.03
2018-12-21T15:17:31.989Z,8.47
2018-12-21T15:20:00.643Z,9.10
2018-12-21T15:22:29.590Z,10.00
2018-12-21T15:24:58.200Z,9.43
2018-12-21T15:27:27.254Z,8.00
2018-12-21T15:29:56.068Z,7.93
2018-12-21T15:32:25.406Z,9.17
2018-12-21T15:34:54.105Z,9.13
2018-12-21T15:37:22.781Z,7.73
2018-12-21T15:39:52.034Z,9.70
2018-12-21T15:42:21.829Z,9.07
2018-12-21T15:44:50.403Z,8.07
2018-12-21T15:47:19.166Z,10.10
2018-12-21T15:49:47.971Z,8.07
2018-12-21T15:52:17.372Z,8.57
2018-12-21T15:54:49.189Z,8.73
2018-12-21T15:57:17.754Z,9.00
2018-12-21T15:59:48.046Z,10.07
2018-12-21T16:02:17.316Z,9.17
2018-12-21T16:04:46.082Z,7.90
2018-12-21T16:07:15.588Z,8.20
2018-12-21T16:09:44.236Z,10.77
2018-12-21T16:12:13.030Z,8.90
2018-12-21T16:14:42.103Z,9.17
2018-12-21T16:17:11.038Z,10.30
2018-12-21T16:19:39.974Z,8.73
2018-12-21T16:22:08.690Z,8.77
2018-12-21T16:25:03.469Z,8.30
2018-12-21T16:27:56.869Z,9.90
2018-12-21T16:33:20.533Z,8.47
2018-12-21T16:35:49.687Z,9.07
2018-12-21T16:38:18.919Z,9.43
2018-12-21T16:40:49.139Z,8.73
2018-12-21T16:43:17.824Z,8.40
2018-12-21T16:45:47.311Z,12.27
2018-12-21T16:48:15.986Z,9.30
2018-12-21T16:50:44.743Z,9.77
2018-12-21T16:53:13.405Z,9.33
2018-12-21T16:55:42.037Z,8.07
2018-12-21T16:58:10.711Z,8.97
2018-12-21T17:00:39.335Z,8.87
2018-12-21T17:03:15.501Z,9.27
2018-12-21T17:05:39.983Z,9.20
2018-12-21T17:08:09.059Z,10.67
2018-12-21T17:10:40.014Z,10.00
2018-12-21T17:13:09.415Z,9.20
2018-12-21T17:15:38.364Z,8.97
2018-12-21T17:18:08.013Z,9.43
2018-12-21T17:20:36.668Z,8.97
2018-12-21T17:23:06.059Z,9.53
2018-12-21T17:25:35.418Z,8.73
2018-12-21T17:28:04.168Z,8.10
2018-12-21T17:30:33.375Z,8.53
2018-12-21T17:33:02.033Z,8.97
2018-12-21T17:35:31.704Z,10.40
2018-12-21T17:38:00.377Z,8.23
2018-12-21T17:40:29.014Z,8.67
2018-12-21T17:42:58.805Z,8.37
2018-12-21T17:45:28.258Z,8.93
2018-12-21T17:47:56.868Z,8.87
2018-12-21T17:50:26.259Z,10.03
2018-12-21T17:52:55.641Z,9.13
2018-12-21T17:55:25.400Z,9.83
2018-12-21T17:57:54.198Z,10.47
2018-12-21T18:00:22.910Z,9.40
2018-12-21T18:03:00.625Z,9.90
2018-12-21T18:05:36.228Z,7.97
2018-12-21T18:08:07.305Z,9.40
2018-12-21T18:10:35.916Z,9.73
2018-12-21T18:13:04.750Z,8.47
2018-12-21T18:15:33.657Z,9.07
2018-12-21T18:18:03.055Z,9.50
2018-12-21T18:20:31.578Z,9.63
2018-12-21T18:23:02.511Z,11.40
2018-12-21T18:25:32.099Z,9.50
2018-12-21T18:28:10.523Z,9.40
2018-12-21T18:30:39.212Z,9.47
2018-12-21T18:33:10.836Z,9.73
2018-12-21T18:35:40.079Z,10.23
2018-12-21T18:38:13.018Z,12.03
2018-12-21T18:40:42.536Z,10.73
2018-12-21T18:43:11.926Z,8.93
2018-12-21T18:45:41.043Z,9.90
2018-12-21T18:48:10.542Z,9.37
2018-12-21T18:50:40.087Z,9.83
2018-12-21T18:53:08.683Z,9.80
2018-12-21T18:55:37.706Z,8.60
2018-12-21T18:58:06.286Z,8.90
2018-12-21T19:00:36.556Z,9.77
2018-12-21T19:03:05.257Z,10.83
2018-12-21T19:05:34.288Z,12.93
2018-12-21T19:08:03.133Z,10.53
2018-12-21T19:10:32.293Z,10.23
2018-12-21T19:13:02.016Z,9.30
2018-12-21T19:15:31.249Z,9.80
2018-12-21T19:18:00.228Z,9.23
2018-12-21T19:20:29.472Z,8.67
2018-12-21T19:22:58.152Z,8.07
2018-12-21T19:25:26.830Z,9.00
2018-12-21T19:27:55.555Z,9.33
2018-12-21T19:30:25.274Z,9.43
2018-12-21T19:32:54.035Z,10.60
2018-12-21T19:35:27.667Z,10.50
2018-12-21T19:37:53.440Z,11.23
2018-12-21T19:40:22.161Z,10.33
2018-12-21T19:42:50.677Z,10.87
2018-12-21T19:45:19.637Z,13.47
2018-12-21T19:47:48.670Z,10.07
2018-12-21T19:50:17.657Z,9.40
2018-12-21T19:52:46.340Z,9.83
2018-12-21T19:55:26.321Z,10.40
2018-12-21T19:57:56.074Z,10.33
2018-12-21T20:02:39.481Z,10.17
2018-12-21T20:05:08.842Z,9.23
2018-12-21T20:07:39.581Z,10.60
2018-12-21T20:10:09.416Z,11.50
2018-12-21T20:12:39.474Z,9.47
2018-12-21T20:15:11.104Z,9.13
2018-12-21T20:17:41.127Z,9.53
2018-12-21T20:20:12.121Z,9.63
2018-12-21T20:22:42.359Z,10.23
2018-12-21T20:25:13.268Z,8.30
2018-12-21T20:27:42.919Z,9.87
2018-12-21T20:30:14.981Z,9.17
2018-12-21T20:32:43.631Z,8.90
2018-12-21T20:35:12.677Z,8.23
2018-12-21T20:37:47.731Z,9.13
2018-12-21T20:40:16.633Z,9.57
2018-12-21T20:42:45.580Z,8.53
2018-12-21T20:45:14.313Z,9.23
2018-12-21T20:47:43.536Z,8.53
2018-12-21T20:50:16.908Z,7.70
2018-12-21T20:52:46.200Z,8.07
2018-12-21T20:55:14.777Z,9.47
2018-12-21T20:57:45.791Z,8.20
2018-12-21T21:00:16.121Z,8.67
2018-12-21T21:02:45.197Z,8.63
2018-12-21T21:05:14.350Z,7.80
2018-12-21T21:07:50.473Z,8.07
2018-12-21T21:10:27.635Z,9.00
2018-12-21T21:13:09.582Z,7.27
2018-12-21T21:15:39.594Z,8.77
2018-12-21T21:18:09.804Z,10.40
2018-12-21T21:20:39.750Z,9.77
2018-12-21T21:23:10.645Z,9.43
2018-12-21T21:25:41.087Z,9.33
2018-12-21T21:28:09.670Z,8.37
2018-12-21T21:30:39.462Z,7.80
2018-12-21T21:33:08.830Z,8.17
2018-12-21T21:35:37.492Z,6.87
2018-12-21T21:38:06.149Z,7.17
2018-12-21T21:40:35.296Z,7.97
2018-12-21T21:43:04.025Z,8.40
2018-12-21T21:45:33.092Z,7.43
2018-12-21T21:48:01.845Z,7.40
2018-12-21T21:50:31.900Z,7.73
2018-12-21T21:53:00.546Z,9.20
2018-12-21T21:55:29.427Z,7.80
2018-12-21T21:57:58.334Z,6.37
2018-12-21T22:00:29.183Z,6.83
2018-12-21T22:02:58.003Z,9.33
2018-12-21T22:05:27.252Z,8.80
2018-12-21T22:07:56.063Z,8.33
2018-12-21T22:10:25.024Z,9.47
2018-12-21T22:13:01.865Z,7.30
2018-12-21T22:15:30.607Z,8.37
2018-12-21T22:17:59.370Z,7.90
2018-12-21T22:20:28.146Z,8.07
2018-12-21T22:22:56.752Z,8.80
2018-12-21T22:25:25.547Z,7.00
2018-12-21T22:27:55.115Z,9.57
2018-12-21T22:30:23.765Z,7.53
2018-12-21T22:32:52.698Z,9.57
2018-12-21T22:35:21.321Z,8.03
2018-12-21T22:37:50.361Z,8.07
2018-12-21T22:40:18.974Z,8.10
2018-12-21T22:42:47.535Z,8.67
2018-12-21T22:45:16.941Z,8.47
2018-12-21T22:47:45.419Z,8.17
2018-12-21T22:50:14.159Z,9.77
2018-12-21T22:52:42.791Z,9.53
2018-12-21T22:55:11.418Z,8.03
2018-12-21T22:57:39.933Z,8.07
2018-12-21T23:00:17.049Z,8.33
2018-12-21T23:02:46.377Z,7.97
2018-12-21T23:05:15.123Z,8.80
2018-12-21T23:07:44.403Z,8.47
2018-12-21T23:10:13.236Z,8.17
2018-12-21T23:12:42.052Z,8.40
2018-12-21T23:15:10.735Z,8.50
2018-12-21T23:17:39.933Z,9.67
2018-12-21T23:20:08.583Z,8.03
2018-12-21T23:22:37.694Z,8.23
2018-12-21T23:25:07.103Z,8.00
2018-12-21T23:27:36.620Z,8.77
2018-12-21T23:30:05.998Z,7.83
2018-12-21T23:32:34.930Z,7.23
2018-12-21T23:35:04.597Z,8.47
2018-12-21T23:37:33.264Z,8.10
2018-12-21T23:40:01.906Z,7.53
2018-12-21T23:42:31.425Z,8.50
2018-12-21T23:45:00.127Z,7.73
2018-12-21T23:47:29.283Z,8.30
2018-12-21T23:49:58.017Z,7.83
2018-12-21T23:52:27.268Z,6.50
2018-12-21T23:54:55.882Z,7.37
2018-12-21T23:57:24.553Z,7.63
2018-12-21T23:59:53.320Z,6.33
